Time;durP1;ratioP1;P1;durP2;ratioP2;P2;SDS_P1;SDS_P2;PMS_P1;PMS_P2;Temp;Humidity;BMP_temperature;BMP_pressure;BME280_temperature;BME280_humidity;BME280_pressure;Samples;Min_cycle;Max_cycle;Signal;HPM_P1;HPM_P2
2022/06/26 00:02:07;;;;;;;1.63;1.30;;;21.50;99.90;;;;;;7397887;19;20138;-80
2022/06/26 00:04:33;;;;;;;2.10;1.60;;;21.60;99.90;;;;;;7392102;19;20700;-78
2022/06/26 00:07:00;;;;;;;2.50;1.65;;;21.70;99.90;;;;;;7395529;19;20519;-77
2022/06/26 00:09:28;;;;;;;3.80;1.50;;;21.70;99.90;;;;;;7395671;19;20135;-80
2022/06/26 00:11:55;;;;;;;1.90;1.40;;;21.80;99.90;;;;;;7396176;19;20131;-80
2022/06/26 00:14:20;;;;;;;4.38;1.42;;;21.80;99.90;;;;;;7394709;19;20150;-80
2022/06/26 00:16:46;;;;;;;1.58;1.40;;;21.90;99.90;;;;;;7394729;19;20635;-81
2022/06/26 00:19:12;;;;;;;1.60;1.20;;;22.00;99.90;;;;;;7396745;19;20170;-80
2022/06/26 00:21:38;;;;;;;1.92;1.20;;;22.10;99.90;;;;;;7394797;19;20206;-78
2022/06/26 00:24:04;;;;;;;1.77;1.50;;;22.10;99.90;;;;;;7396940;19;20165;-77
2022/06/26 00:26:30;;;;;;;1.80;1.48;;;22.10;99.90;;;;;;7392971;19;20167;-77
2022/06/26 00:28:55;;;;;;;1.58;1.48;;;22.10;99.90;;;;;;7391788;19;20154;-80
2022/06/26 00:31:22;;;;;;;2.22;1.40;;;22.10;99.90;;;;;;7395961;19;20155;-79
2022/06/26 00:33:48;;;;;;;2.10;1.58;;;22.00;99.90;;;;;;7395918;19;20146;-79
2022/06/26 00:36:14;;;;;;;2.00;1.40;;;22.00;99.90;;;;;;7392593;19;20178;-77
2022/06/26 00:38:39;;;;;;;3.13;1.33;;;21.90;99.90;;;;;;7392665;19;20138;-79
2022/06/26 00:41:05;;;;;;;1.52;1.20;;;21.70;99.90;;;;;;7393662;19;20138;-77
2022/06/26 00:43:32;;;;;;;1.27;1.17;;;21.90;99.90;;;;;;7394305;19;20525;-79
2022/06/26 00:45:57;;;;;;;2.25;1.50;;;21.90;99.90;;;;;;7401052;19;20139;-78
2022/06/26 00:48:23;;;;;;;3.05;1.60;;;21.90;99.90;;;;;;7394941;19;20131;-78
2022/06/26 00:50:51;;;;;;;1.95;1.30;;;22.10;99.90;;;;;;7394797;19;20178;-77
2022/06/26 00:53:17;;;;;;;3.97;1.48;;;22.20;99.90;;;;;;7395092;19;20617;-79
2022/06/26 00:55:43;;;;;;;3.10;1.33;;;22.30;99.90;;;;;;7393585;19;20139;-77
2022/06/26 00:58:10;;;;;;;1.65;1.17;;;22.20;99.90;;;;;;7396460;19;20466;-77
2022/06/26 01:00:35;;;;;;;1.73;1.40;;;22.20;99.90;;;;;;7388909;19;20163;-80
2022/06/26 01:03:01;;;;;;;3.28;1.55;;;22.30;99.90;;;;;;7394075;19;20186;-80
2022/06/26 01:05:27;;;;;;;1.45;0.98;;;22.30;99.90;;;;;;7400029;19;20202;-80
2022/06/26 01:07:53;;;;;;;1.55;1.23;;;22.30;99.90;;;;;;7392016;19;20154;-78
2022/06/26 01:10:20;;;;;;;1.38;1.17;;;22.30;99.90;;;;;;7395562;19;20175;-78
2022/06/26 01:12:46;;;;;;;2.67;0.90;;;22.20;99.90;;;;;;7392183;19;20541;-79
2022/06/26 01:15:12;;;;;;;1.35;1.05;;;22.20;99.90;;;;;;7393946;19;20150;-80
2022/06/26 01:17:39;;;;;;;1.42;1.08;;;22.20;99.90;;;;;;7394591;19;20225;-80
2022/06/26 01:20:07;;;;;;;2.33;1.05;;;22.30;99.90;;;;;;7391688;19;20154;-80
2022/06/26 01:22:33;;;;;;;1.88;1.10;;;22.40;99.90;;;;;;7389540;19;20146;-78
2022/06/26 01:25:00;;;;;;;1.20;1.10;;;22.30;99.90;;;;;;7389410;19;20172;-77
2022/06/26 01:27:26;;;;;;;1.65;0.82;;;22.20;99.90;;;;;;7392903;19;20168;-79
2022/06/26 01:29:51;;;;;;;1.25;1.10;;;22.00;99.90;;;;;;7396862;19;20689;-79
2022/06/26 01:32:17;;;;;;;1.50;1.25;;;22.20;99.90;;;;;;7390487;19;20139;-79
2022/06/26 01:34:43;;;;;;;2.17;1.00;;;22.30;99.90;;;;;;7396155;19;20224;-78
2022/06/26 01:37:09;;;;;;;1.20;1.10;;;22.30;99.90;;;;;;7393661;19;20139;-77
2022/06/26 01:39:35;;;;;;;0.82;0.82;;;22.50;99.90;;;;;;7387729;19;20135;-79
2022/06/26 01:42:00;;;;;;;2.35;1.00;;;22.70;99.90;;;;;;7387685;19;20141;-80
2022/06/26 01:44:26;;;;;;;1.58;0.90;;;22.40;99.90;;;;;;7394263;19;20143;-78
2022/06/26 01:46:52;;;;;;;2.53;0.90;;;22.40;99.90;;;;;;7389899;19;20622;-77
2022/06/26 01:49:17;;;;;;;2.13;1.17;;;22.50;99.90;;;;;;7390011;19;20530;-78
2022/06/26 01:51:43;;;;;;;1.48;1.02;;;22.50;99.90;;;;;;7392105;19;20154;-80
2022/06/26 01:54:09;;;;;;;1.25;0.85;;;22.60;99.90;;;;;;7393766;19;20166;-78
2022/06/26 01:56:35;;;;;;;1.00;0.90;;;22.50;99.90;;;;;;7387992;19;20649;-77
2022/06/26 01:59:01;;;;;;;1.85;1.58;;;22.40;99.90;;;;;;7389898;19;20159;-77
2022/06/26 02:01:27;;;;;;;1.80;1.15;;;22.40;99.90;;;;;;7390270;19;20157;-79
2022/06/26 02:03:53;;;;;;;1.58;0.93;;;22.40;99.90;;;;;;7389018;19;20150;-80
2022/06/26 02:06:19;;;;;;;2.15;1.30;;;22.30;99.90;;;;;;7392254;19;20158;-80
2022/06/26 02:08:45;;;;;;;1.67;1.25;;;22.50;99.90;;;;;;7386356;19;20632;-78
2022/06/26 02:13:57;;;;;;;6.55;1.10;;;22.50;99.90;;;;;;7395444;19;20131;-80
2022/06/26 02:16:29;;;;;;;1.05;0.95;;;22.50;99.90;;;;;;7386231;19;20149;-79
2022/06/26 02:18:56;;;;;;;1.55;1.23;;;22.40;99.90;;;;;;7391274;19;20164;-80
2022/06/26 02:21:27;;;;;;;1.42;1.00;;;22.40;99.90;;;;;;7391034;19;20154;-77
2022/06/26 02:23:56;;;;;;;1.60;1.23;;;22.40;99.90;;;;;;7386308;19;20135;-79
2022/06/26 02:26:23;;;;;;;0.85;0.80;;;22.40;99.90;;;;;;7390655;19;20487;-77
2022/06/26 02:28:49;;;;;;;1.27;1.17;;;22.40;99.90;;;;;;7388803;19;20143;-77
2022/06/26 02:31:15;;;;;;;3.33;1.30;;;22.40;99.90;;;;;;7391201;19;20142;-77
2022/06/26 02:33:41;;;;;;;1.05;0.95;;;22.40;99.90;;;;;;7394963;19;20131;-80
2022/06/26 02:36:08;;;;;;;1.35;1.10;;;22.20;99.90;;;;;;7388470;19;20153;-77
2022/06/26 02:38:35;;;;;;;1.25;1.10;;;22.30;99.90;;;;;;7387774;19;20163;-78
2022/06/26 02:41:01;;;;;;;1.10;0.93;;;22.20;99.90;;;;;;7390090;19;20147;-79
2022/06/26 02:43:27;;;;;;;1.15;0.85;;;22.00;99.90;;;;;;7386913;19;20142;-77
2022/06/26 02:45:55;;;;;;;2.97;1.10;;;21.80;99.90;;;;;;7390821;19;20141;-79
2022/06/26 02:48:21;;;;;;;2.55;1.20;;;21.50;99.90;;;;;;7390247;19;20142;-78
2022/06/26 02:50:48;;;;;;;1.60;1.10;;;21.50;99.90;;;;;;7388913;19;20135;-80
2022/06/26 02:53:15;;;;;;;1.60;1.20;;;21.70;99.90;;;;;;7390992;19;20147;-77
2022/06/26 02:55:40;;;;;;;0.90;0.90;;;21.80;99.90;;;;;;7393328;19;20157;-78
2022/06/26 02:58:06;;;;;;;1.23;1.13;;;21.70;99.90;;;;;;7390735;19;20154;-78
2022/06/26 03:00:32;;;;;;;2.33;1.30;;;21.40;99.90;;;;;;7390304;19;20130;-80
2022/06/26 03:03:01;;;;;;;1.38;1.17;;;21.70;99.90;;;;;;7383228;19;20170;-79
2022/06/26 03:05:27;;;;;;;1.10;1.00;;;21.80;99.90;;;;;;7389324;19;20154;-79
2022/06/26 03:07:56;;;;;;;1.13;1.02;;;21.60;99.90;;;;;;7387455;19;20159;-78
2022/06/26 03:10:23;;;;;;;2.35;1.10;;;21.30;99.90;;;;;;7387178;19;20186;-79
2022/06/26 03:12:50;;;;;;;1.70;1.15;;;21.20;99.90;;;;;;7388160;19;20484;-80
2022/06/26 03:15:18;;;;;;;1.02;0.93;;;21.40;99.90;;;;;;7390618;19;20153;-77
2022/06/26 03:17:44;;;;;;;3.10;1.25;;;21.70;99.90;;;;;;7392723;19;20145;-79
2022/06/26 03:20:15;;;;;;;1.17;1.00;;;22.00;99.90;;;;;;7394685;19;20561;-78
2022/06/26 03:22:41;;;;;;;1.20;1.10;;;22.10;99.90;;;;;;7384063;19;20147;-79
2022/06/26 03:25:07;;;;;;;3.08;1.20;;;22.20;99.90;;;;;;7388843;19;20147;-80
2022/06/26 03:27:33;;;;;;;1.20;1.08;;;22.20;99.90;;;;;;7387782;19;21079;-80
2022/06/26 03:29:59;;;;;;;1.30;1.10;;;22.10;99.90;;;;;;7385978;19;20142;-78
2022/06/26 03:32:26;;;;;;;1.45;1.20;;;21.90;99.90;;;;;;7390127;19;20661;-80
2022/06/26 03:34:51;;;;;;;1.38;1.00;;;21.90;99.90;;;;;;7390047;19;20153;-79
2022/06/26 03:37:18;;;;;;;1.45;0.98;;;21.70;99.90;;;;;;7388585;19;20143;-77
2022/06/26 03:39:43;;;;;;;3.53;1.13;;;21.70;99.90;;;;;;7387851;19;20238;-79
2022/06/26 03:42:09;;;;;;;1.70;1.20;;;21.70;99.90;;;;;;7390228;19;20159;-78
2022/06/26 03:44:35;;;;;;;1.10;0.93;;;21.70;99.90;;;;;;7387821;19;20142;-78
2022/06/26 03:47:01;;;;;;;0.88;0.80;;;21.60;99.90;;;;;;7388645;19;20638;-78
2022/06/26 03:49:27;;;;;;;1.13;0.85;;;21.50;99.90;;;;;;7396799;19;20462;-79
2022/06/26 03:51:52;;;;;;;1.00;0.88;;;21.60;99.90;;;;;;7395902;19;20469;-81
2022/06/26 03:54:19;;;;;;;1.48;0.90;;;21.70;99.90;;;;;;7396739;19;20609;-80
2022/06/26 03:56:46;;;;;;;1.23;0.88;;;21.80;99.90;;;;;;7396022;19;20167;-77
2022/06/26 03:59:11;;;;;;;1.60;0.90;;;21.90;99.90;;;;;;7395989;19;20147;-79
2022/06/26 04:01:37;;;;;;;1.08;0.90;;;21.90;99.90;;;;;;7394941;19;20163;-80
2022/06/26 04:04:03;;;;;;;1.08;0.98;;;21.60;99.90;;;;;;7393823;19;20161;-78
2022/06/26 04:06:29;;;;;;;1.55;1.05;;;21.50;99.90;;;;;;7394956;19;20135;-79
2022/06/26 04:08:54;;;;;;;1.10;1.00;;;21.60;99.90;;;;;;7396226;19;20720;-79
2022/06/26 04:11:20;;;;;;;1.60;0.90;;;21.70;99.90;;;;;;7390432;19;20196;-79
2022/06/26 04:13:49;;;;;;;1.95;1.30;;;21.60;99.90;;;;;;7393290;19;20142;-78
2022/06/26 04:16:16;;;;;;;3.05;1.10;;;21.70;99.90;;;;;;7395214;19;20167;-77
2022/06/26 04:18:42;;;;;;;1.67;1.10;;;21.60;99.90;;;;;;7394123;19;20139;-77
2022/06/26 04:21:08;;;;;;;0.98;0.80;;;21.60;99.90;;;;;;7390472;19;20189;-79
2022/06/26 04:23:33;;;;;;;1.38;1.10;;;21.60;99.90;;;;;;7392739;19;20145;-79
2022/06/26 04:25:59;;;;;;;2.58;1.00;;;21.60;99.90;;;;;;7396622;19;20127;-78
2022/06/26 04:28:25;;;;;;;1.33;0.90;;;21.60;99.90;;;;;;7392606;19;20143;-78
2022/06/26 04:30:51;;;;;;;1.10;1.00;;;21.80;99.90;;;;;;7389963;19;20142;-79
2022/06/26 04:33:16;;;;;;;2.00;1.17;;;21.90;99.90;;;;;;7391361;19;20134;-79
2022/06/26 04:35:42;;;;;;;2.85;0.90;;;21.90;99.90;;;;;;7391519;19;20138;-80
2022/06/26 04:38:08;;;;;;;1.05;0.90;;;21.90;99.90;;;;;;7391650;19;20190;-80
2022/06/26 04:40:34;;;;;;;1.30;1.00;;;21.90;99.90;;;;;;7395054;19;20131;-81
2022/06/26 04:42:59;;;;;;;1.10;0.90;;;22.00;99.90;;;;;;7392361;19;20230;-78
2022/06/26 04:45:25;;;;;;;1.17;1.08;;;22.00;99.90;;;;;;7395835;19;20158;-80
2022/06/26 04:47:51;;;;;;;0.75;0.68;;;21.90;99.90;;;;;;7392670;19;20426;-79
2022/06/26 04:50:17;;;;;;;0.82;0.68;;;21.80;99.90;;;;;;7392617;19;20174;-78
2022/06/26 04:52:44;;;;;;;1.33;0.88;;;21.90;99.90;;;;;;7397255;19;20664;-79
2022/06/26 04:55:10;;;;;;;1.02;0.90;;;22.00;99.90;;;;;;7393735;19;20143;-77
2022/06/26 04:57:36;;;;;;;1.05;0.80;;;21.90;99.90;;;;;;7390425;19;20139;-80
2022/06/26 05:00:05;;;;;;;1.85;0.90;;;21.80;99.90;;;;;;7388900;19;20253;-80
2022/06/26 05:02:31;;;;;;;2.40;0.85;;;21.90;99.90;;;;;;7391832;19;20151;-79
2022/06/26 05:04:56;;;;;;;1.10;1.00;;;22.10;99.90;;;;;;7393647;19;20165;-78
2022/06/26 05:07:22;;;;;;;0.90;0.90;;;22.00;99.90;;;;;;7387618;19;20131;-77
2022/06/26 05:09:48;;;;;;;2.47;1.15;;;22.00;99.90;;;;;;7393521;19;20154;-80
2022/06/26 05:12:14;;;;;;;1.25;0.82;;;22.10;99.90;;;;;;7396176;19;20146;-79
2022/06/26 05:14:40;;;;;;;1.40;1.00;;;22.10;99.90;;;;;;7392077;19;20609;-79
2022/06/26 05:17:05;;;;;;;1.35;0.90;;;22.10;99.90;;;;;;7392674;19;21140;-80
2022/06/26 05:19:31;;;;;;;1.02;0.93;;;22.10;99.90;;;;;;7389606;19;20209;-78
2022/06/26 05:21:57;;;;;;;2.00;0.75;;;22.10;99.90;;;;;;7393317;19;20754;-79
2022/06/26 05:24:23;;;;;;;2.78;0.90;;;22.10;99.90;;;;;;7390306;19;20142;-79
2022/06/26 05:26:48;;;;;;;2.35;0.90;;;22.10;99.90;;;;;;7393260;19;20142;-79
2022/06/26 05:29:14;;;;;;;1.83;1.10;;;22.20;99.90;;;;;;7392626;19;20135;-79
2022/06/26 05:31:40;;;;;;;1.13;0.80;;;22.20;99.90;;;;;;7395599;19;20640;-79
2022/06/26 05:34:06;;;;;;;2.00;1.20;;;22.20;99.90;;;;;;7387119;19;20165;-78
2022/06/26 05:36:32;;;;;;;1.55;1.10;;;22.20;99.90;;;;;;7392220;19;20617;-80
2022/06/26 05:38:58;;;;;;;1.27;1.10;;;22.20;99.90;;;;;;7389905;19;20718;-77
2022/06/26 05:41:24;;;;;;;0.95;0.85;;;22.00;99.90;;;;;;7392526;19;20618;-78
2022/06/26 05:43:49;;;;;;;1.35;1.20;;;21.90;99.90;;;;;;7393403;19;20179;-78
2022/06/26 05:46:15;;;;;;;1.02;1.00;;;22.00;99.90;;;;;;7392569;19;20147;-80
2022/06/26 05:48:42;;;;;;;1.17;1.00;;;22.10;99.90;;;;;;7392618;19;20210;-78
2022/06/26 05:51:08;;;;;;;2.75;1.00;;;22.10;99.90;;;;;;7394769;19;20143;-80
2022/06/26 05:53:34;;;;;;;1.88;1.52;;;22.20;99.90;;;;;;7394096;19;20131;-78
2022/06/26 05:56:00;;;;;;;3.00;1.15;;;22.20;99.90;;;;;;7391369;19;20139;-78
2022/06/26 05:58:25;;;;;;;1.10;1.00;;;22.10;99.90;;;;;;7392886;19;20164;-78
2022/06/26 06:00:51;;;;;;;1.08;1.00;;;22.10;99.90;;;;;;7391687;19;20142;-78
2022/06/26 06:03:17;;;;;;;0.90;0.90;;;22.20;99.90;;;;;;7391471;19;20448;-77
2022/06/26 06:05:43;;;;;;;1.65;0.90;;;22.20;99.90;;;;;;7392893;19;20496;-77
2022/06/26 06:08:09;;;;;;;0.95;0.90;;;22.30;99.90;;;;;;7390838;19;20178;-77
2022/06/26 06:10:36;;;;;;;1.63;1.20;;;22.10;99.90;;;;;;7389875;19;20786;-79
2022/06/26 06:13:01;;;;;;;4.40;1.45;;;22.10;99.90;;;;;;7390250;19;20166;-77
2022/06/26 06:15:27;;;;;;;1.10;1.00;;;22.20;99.90;;;;;;7391093;19;20134;-78
2022/06/26 06:17:53;;;;;;;1.77;1.00;;;23.20;99.90;;;;;;7394219;19;20625;-80
2022/06/26 06:20:22;;;;;;;1.48;1.10;;;23.90;99.90;;;;;;7386968;19;20242;-79
2022/06/26 06:22:54;;;;;;;0.95;0.85;;;24.10;99.90;;;;;;7384966;19;20465;-80
2022/06/26 06:25:23;;;;;;;1.92;1.23;;;24.00;99.90;;;;;;7391094;19;20127;-81
2022/06/26 06:27:49;;;;;;;1.63;1.05;;;24.20;99.90;;;;;;7388622;19;20310;-79
2022/06/26 06:30:15;;;;;;;1.77;1.65;;;24.80;99.90;;;;;;7388603;19;20209;-78
2022/06/26 06:32:42;;;;;;;1.10;1.00;;;25.30;99.90;;;;;;7388110;19;20154;-79
2022/06/26 06:35:11;;;;;;;1.15;1.05;;;25.70;99.90;;;;;;7390258;19;20151;-78
2022/06/26 06:37:37;;;;;;;0.90;0.75;;;25.70;99.90;;;;;;7387201;19;20135;-78
2022/06/26 06:40:03;;;;;;;0.88;0.80;;;25.90;99.90;;;;;;7388804;19;20142;-80
2022/06/26 06:42:29;;;;;;;1.55;1.00;;;26.40;99.90;;;;;;7393680;19;20143;-80
2022/06/26 06:44:55;;;;;;;1.95;0.98;;;26.50;99.90;;;;;;7390657;19;20151;-80
2022/06/26 06:47:20;;;;;;;1.35;0.90;;;26.60;99.90;;;;;;7390549;19;20512;-80
2022/06/26 06:49:46;;;;;;;1.83;0.90;;;26.90;99.90;;;;;;7389273;19;20558;-79
2022/06/26 06:52:12;;;;;;;1.05;0.85;;;27.10;99.90;;;;;;7393521;19;20130;-79
2022/06/26 06:54:38;;;;;;;1.30;1.10;;;27.30;99.90;;;;;;7389070;19;20157;-81
2022/06/26 06:57:04;;;;;;;1.08;0.88;;;27.30;99.90;;;;;;7387864;19;20181;-79
2022/06/26 06:59:30;;;;;;;1.63;1.00;;;27.20;99.90;;;;;;7391105;19;20131;-79
2022/06/26 07:01:56;;;;;;;1.25;1.00;;;27.30;99.90;;;;;;7391871;19;20161;-79
2022/06/26 07:04:24;;;;;;;1.20;1.10;;;27.70;99.90;;;;;;7387999;19;20569;-78
2022/06/26 07:06:50;;;;;;;3.60;1.10;;;28.00;99.90;;;;;;7391021;19;20167;-79
2022/06/26 07:09:16;;;;;;;1.27;1.17;;;28.00;99.90;;;;;;7390290;19;20122;-79
2022/06/26 07:11:42;;;;;;;2.42;1.02;;;28.20;99.90;;;;;;7389345;19;20147;-78
2022/06/26 07:14:08;;;;;;;0.90;0.80;;;28.20;99.90;;;;;;7389788;19;20583;-78
2022/06/26 07:16:35;;;;;;;1.27;0.90;;;28.10;99.90;;;;;;7386269;19;20142;-79
2022/06/26 07:19:02;;;;;;;1.45;1.20;;;28.10;99.90;;;;;;7388117;19;20135;-78
2022/06/26 07:21:28;;;;;;;0.95;0.88;;;27.90;99.90;;;;;;7389627;19;20142;-78
2022/06/26 07:23:54;;;;;;;1.52;1.00;;;28.00;99.90;;;;;;7393096;19;20142;-78
2022/06/26 07:26:19;;;;;;;2.80;1.05;;;28.30;99.90;;;;;;7392476;19;20206;-79
2022/06/26 07:28:45;;;;;;;0.80;0.80;;;28.70;99.80;;;;;;7395096;19;20139;-78
2022/06/26 07:31:11;;;;;;;1.10;0.98;;;28.30;99.50;;;;;;7394640;19;20123;-79
2022/06/26 07:36:21;;;;;;;1.00;0.90;;;28.00;99.80;;;;;;7395256;19;20138;-79
2022/06/26 07:38:47;;;;;;;1.38;0.90;;;27.90;99.60;;;;;;7393619;19;20581;-78
2022/06/26 07:41:13;;;;;;;1.10;0.82;;;27.80;99.50;;;;;;7397703;19;20145;-79
2022/06/26 07:43:39;;;;;;;2.47;0.95;;;27.90;99.40;;;;;;7393110;19;20742;-79
2022/06/26 07:46:05;;;;;;;2.55;1.08;;;27.80;99.40;;;;;;7393549;19;20131;-78
2022/06/26 07:48:32;;;;;;;1.38;1.05;;;27.80;99.30;;;;;;7391993;19;20486;-77
2022/06/26 07:50:58;;;;;;;0.80;0.80;;;27.80;99.40;;;;;;7393315;19;20127;-78
2022/06/26 07:53:24;;;;;;;1.48;0.80;;;28.20;99.00;;;;;;7393347;19;20609;-77
2022/06/26 07:55:52;;;;;;;0.70;0.70;;;28.70;98.00;;;;;;7392921;19;20123;-78
2022/06/26 07:58:18;;;;;;;0.93;0.88;;;28.50;97.60;;;;;;7391721;19;20126;-79
2022/06/26 08:00:45;;;;;;;1.25;0.70;;;28.30;98.00;;;;;;7395739;19;20190;-77
2022/06/26 08:03:14;;;;;;;1.00;0.80;;;28.50;97.80;;;;;;7389068;19;20146;-78
2022/06/26 08:05:40;;;;;;;2.15;0.70;;;28.30;97.60;;;;;;7399016;19;20130;-77
2022/06/26 08:08:08;;;;;;;2.60;0.82;;;27.80;98.30;;;;;;7397604;19;20151;-78
2022/06/26 08:10:35;;;;;;;2.72;0.70;;;27.80;98.50;;;;;;7393410;19;20151;-77
2022/06/26 08:13:01;;;;;;;0.80;0.80;;;28.00;98.10;;;;;;7397016;19;20530;-77
2022/06/26 08:15:27;;;;;;;1.35;1.10;;;28.20;97.90;;;;;;7394229;19;20142;-79
2022/06/26 08:17:52;;;;;;;0.80;0.80;;;28.20;97.90;;;;;;7394578;19;20522;-78
2022/06/26 08:20:18;;;;;;;0.98;0.70;;;28.20;97.80;;;;;;7393019;19;20218;-77
2022/06/26 08:22:44;;;;;;;1.30;0.80;;;28.20;98.00;;;;;;7392599;19;20154;-77
2022/06/26 08:25:10;;;;;;;0.85;0.75;;;28.10;98.10;;;;;;7393823;19;20138;-79
2022/06/26 08:27:36;;;;;;;1.55;0.90;;;28.10;98.20;;;;;;7395016;19;20162;-78
2022/06/26 08:30:03;;;;;;;0.63;0.50;;;28.30;97.80;;;;;;7388457;19;20146;-77
2022/06/26 08:32:29;;;;;;;0.98;0.82;;;28.30;97.70;;;;;;7396115;19;20150;-76
2022/06/26 08:34:54;;;;;;;0.80;0.70;;;28.20;97.60;;;;;;7392221;19;20147;-76
2022/06/26 08:37:20;;;;;;;2.30;0.70;;;28.30;97.70;;;;;;7393689;19;20154;-76
2022/06/26 08:39:46;;;;;;;0.60;0.60;;;28.30;97.80;;;;;;7393633;19;20169;-77
2022/06/26 08:42:12;;;;;;;3.63;0.70;;;28.40;97.40;;;;;;7394479;19;20134;-77
2022/06/26 08:44:42;;;;;;;0.70;0.60;;;28.40;97.60;;;;;;7392987;19;20230;-77
2022/06/26 08:47:11;;;;;;;2.55;0.70;;;28.20;98.10;;;;;;7393073;19;20145;-75
2022/06/26 08:49:37;;;;;;;1.00;0.90;;;28.30;97.80;;;;;;7395532;19;20158;-76
2022/06/26 08:52:03;;;;;;;0.98;0.77;;;28.10;98.20;;;;;;7395400;19;20167;-79
2022/06/26 08:54:32;;;;;;;0.60;0.60;;;27.90;98.40;;;;;;7395878;19;20230;-82
2022/06/26 08:56:58;;;;;;;0.82;0.82;;;27.80;98.50;;;;;;7394970;19;20235;-78
2022/06/26 08:59:26;;;;;;;0.60;0.60;;;27.70;98.60;;;;;;7392510;19;20172;-78
2022/06/26 09:01:53;;;;;;;1.05;0.68;;;27.80;98.50;;;;;;7394585;19;20147;-75
2022/06/26 09:04:18;;;;;;;2.50;0.82;;;27.60;98.60;;;;;;7390670;19;20185;-82
2022/06/26 09:06:45;;;;;;;0.68;0.68;;;27.70;98.80;;;;;;7394636;19;20511;-78
2022/06/26 09:09:22;;;;;;;0.70;0.70;;;27.80;98.50;;;;;;7390868;19;20142;-75
2022/06/26 09:11:49;;;;;;;2.38;0.65;;;27.50;98.70;;;;;;7393570;19;20135;-75
2022/06/26 09:14:15;;;;;;;0.75;0.75;;;27.50;98.80;;;;;;7392370;19;20130;-75
2022/06/26 09:16:43;;;;;;;0.68;0.68;;;27.50;98.70;;;;;;7392558;19;20157;-75
2022/06/26 09:19:12;;;;;;;0.88;0.88;;;27.30;98.80;;;;;;7391689;19;20158;-75
2022/06/26 09:21:38;;;;;;;0.85;0.80;;;27.00;99.20;;;;;;7392651;19;20232;-75
2022/06/26 09:24:08;;;;;;;1.33;0.75;;;27.00;99.30;;;;;;7391341;19;20126;-76
2022/06/26 09:26:33;;;;;;;1.05;0.63;;;27.00;99.40;;;;;;7392480;19;20966;-75
2022/06/26 09:29:08;;;;;;;1.17;0.70;;;27.00;99.40;;;;;;7392022;19;21046;-76
2022/06/26 09:31:36;;;;;;;0.95;0.73;;;27.00;99.50;;;;;;7392987;19;20493;-76
2022/06/26 09:34:04;;;;;;;1.52;0.70;;;27.00;99.40;;;;;;7393469;19;20159;-75
2022/06/26 09:36:30;;;;;;;0.50;0.50;;;26.80;99.60;;;;;;7391539;19;20157;-76
2022/06/26 09:38:55;;;;;;;1.48;1.00;;;26.80;99.80;;;;;;7394292;19;20171;-77
2022/06/26 09:41:30;;;;;;;1.25;0.60;;;27.30;99.80;;;;;;7393626;19;20135;-76
2022/06/26 09:43:57;;;;;;;1.27;0.80;;;27.60;99.50;;;;;;7390446;19;20134;-76
2022/06/26 09:46:30;;;;;;;0.50;0.50;;;27.60;98.80;;;;;;7389579;19;20190;-74
2022/06/26 09:48:57;;;;;;;1.52;0.60;;;27.60;98.60;;;;;;7391264;19;20146;-76
2022/06/26 09:51:24;;;;;;;0.70;0.70;;;27.40;98.60;;;;;;7392361;19;20134;-76
2022/06/26 09:53:50;;;;;;;0.73;0.68;;;27.10;98.80;;;;;;7392719;19;20566;-76
2022/06/26 09:56:17;;;;;;;0.80;0.75;;;26.90;99.50;;;;;;7391118;19;20150;-76
2022/06/26 09:58:43;;;;;;;0.90;0.70;;;27.10;99.50;;;;;;7392372;19;20476;-78
2022/06/26 10:06:43;;;;;;;1.50;0.80;;;27.30;99.10;;;;;;7394376;19;20157;-78
2022/06/26 10:09:13;;;;;;;0.85;0.75;;;27.30;99.00;;;;;;7391436;19;20130;-81
2022/06/26 10:11:42;;;;;;;0.95;0.70;;;27.20;99.10;;;;;;7392353;19;20138;-80
2022/06/26 10:14:20;;;;;;;1.50;0.90;;;27.00;99.50;;;;;;7393537;19;20162;-79
2022/06/26 10:17:24;;;;;;;1.30;0.80;;;26.90;99.70;;;;;;7393118;19;20169;-80
2022/06/26 10:19:51;;;;;;;1.75;0.90;;;26.80;99.80;;;;;;7393847;19;20161;-78
2022/06/26 10:22:18;;;;;;;0.70;0.70;;;26.80;99.50;;;;;;7391905;19;20593;-79
2022/06/26 10:24:58;;;;;;;2.00;0.80;;;26.90;99.80;;;;;;7391595;19;20181;-79
2022/06/26 10:27:33;;;;;;;1.17;0.80;;;27.00;99.90;;;;;;7391367;19;20142;-80
2022/06/26 10:30:23;;;;;;;1.92;0.88;;;27.30;99.90;;;;;;7389068;19;20613;-77
2022/06/26 10:33:13;;;;;;;1.08;0.85;;;27.30;99.90;;;;;;7392274;19;20489;-77
2022/06/26 10:35:46;;;;;;;1.15;1.05;;;27.30;99.90;;;;;;7390995;19;20142;-79
2022/06/26 10:38:24;;;;;;;1.63;0.98;;;27.10;99.90;;;;;;7391536;19;20154;-76
2022/06/26 10:43:58;;;;;;;1.70;0.70;;;27.20;99.90;;;;;;7390856;19;20504;-77
2022/06/26 10:46:24;;;;;;;1.35;0.85;;;27.20;99.90;;;;;;7390825;19;20176;-80
2022/06/26 10:48:54;;;;;;;0.80;0.80;;;27.30;99.90;;;;;;7389170;19;20142;-75
2022/06/26 10:51:29;;;;;;;2.17;0.65;;;27.40;99.80;;;;;;7390509;19;20884;-78
2022/06/26 10:53:55;;;;;;;0.80;0.70;;;27.30;99.50;;;;;;7392879;19;20158;-76
2022/06/26 10:56:21;;;;;;;0.82;0.77;;;27.30;99.50;;;;;;7388213;19;20142;-79
2022/06/26 10:58:48;;;;;;;0.50;0.43;;;27.10;99.70;;;;;;7391390;19;20234;-79
2022/06/26 11:01:16;;;;;;;2.90;0.70;;;27.10;99.90;;;;;;7390197;19;20143;-75
2022/06/26 11:03:43;;;;;;;0.80;0.80;;;27.20;99.90;;;;;;7388485;19;20204;-78
2022/06/26 11:06:17;;;;;;;0.93;0.75;;;27.30;99.90;;;;;;7392591;19;20630;-77
2022/06/26 11:08:51;;;;;;;0.60;0.60;;;27.20;99.90;;;;;;7391120;19;20153;-78
2022/06/26 11:11:35;;;;;;;0.80;0.80;;;27.10;99.90;;;;;;7389675;19;20130;-82
2022/06/26 11:14:07;;;;;;;1.48;0.80;;;27.10;99.90;;;;;;7390242;19;20130;-77
2022/06/26 11:16:38;;;;;;;0.82;0.68;;;27.30;99.90;;;;;;7388860;19;20134;-77
2022/06/26 11:21:38;;;;;;;2.30;1.52;;;27.20;99.60;;;;;;7387707;19;20126;-77
2022/06/26 11:24:05;;;;;;;1.10;0.80;;;27.10;99.20;;;;;;7387421;19;20602;-77
2022/06/26 11:26:35;;;;;;;1.05;1.00;;;27.00;99.00;;;;;;7388027;19;20492;-80
2022/06/26 11:29:03;;;;;;;1.50;0.90;;;27.00;98.90;;;;;;7385507;19;20139;-79
2022/06/26 11:31:32;;;;;;;1.05;0.77;;;27.00;98.80;;;;;;7383917;19;20131;-80
2022/06/26 11:34:12;;;;;;;1.00;0.90;;;27.10;98.40;;;;;;7388876;19;20131;-76
2022/06/26 11:36:59;;;;;;;0.80;0.80;;;27.30;98.30;;;;;;7389380;19;20135;-76
2022/06/26 11:39:38;;;;;;;1.00;0.90;;;27.20;98.30;;;;;;7390021;19;20127;-78
2022/06/26 11:42:24;;;;;;;2.47;1.02;;;27.20;99.40;;;;;;7388998;19;20516;-78
2022/06/26 11:44:53;;;;;;;2.55;0.60;;;27.10;99.60;;;;;;7388184;19;20138;-77
2022/06/26 11:47:21;;;;;;;0.90;0.80;;;27.20;99.80;;;;;;7388584;19;20143;-76
2022/06/26 11:49:46;;;;;;;0.70;0.70;;;27.20;99.30;;;;;;7389526;19;20234;-77
2022/06/26 11:52:13;;;;;;;0.65;0.60;;;27.30;99.30;;;;;;7390946;19;20500;-78
2022/06/26 11:54:39;;;;;;;0.70;0.70;;;27.30;99.00;;;;;;7387017;19;20145;-76
2022/06/26 11:57:08;;;;;;;0.60;0.60;;;27.50;98.90;;;;;;7388337;19;20127;-77
2022/06/26 11:59:39;;;;;;;1.92;0.95;;;27.40;98.60;;;;;;7387721;19;20166;-77
2022/06/26 12:02:05;;;;;;;1.00;0.80;;;27.30;98.50;;;;;;7391201;19;20604;-78
2022/06/26 12:04:31;;;;;;;0.68;0.68;;;27.20;98.70;;;;;;7388003;19;20182;-77
2022/06/26 12:06:57;;;;;;;1.23;0.85;;;27.20;99.10;;;;;;7387969;19;20509;-76
2022/06/26 12:09:28;;;;;;;0.65;0.65;;;27.30;99.50;;;;;;7388646;19;20225;-78
2022/06/26 12:11:56;;;;;;;2.70;0.80;;;27.40;99.40;;;;;;7394041;19;20157;-77
2022/06/26 12:14:25;;;;;;;3.10;1.13;;;27.40;99.90;;;;;;7391769;19;20218;-77
2022/06/26 12:16:54;;;;;;;1.13;0.77;;;27.60;99.00;;;;;;7393382;19;20142;-78
2022/06/26 12:19:25;;;;;;;0.93;0.82;;;27.60;98.60;;;;;;7390898;19;20154;-78
2022/06/26 12:21:52;;;;;;;1.15;0.88;;;27.60;98.50;;;;;;7395317;19;20222;-78
2022/06/26 12:24:19;;;;;;;0.65;0.65;;;27.60;99.90;;;;;;7398913;19;20139;-77
2022/06/26 12:26:45;;;;;;;1.13;0.80;;;27.60;98.30;;;;;;7392765;19;20138;-77
2022/06/26 12:29:13;;;;;;;0.60;0.60;;;27.70;98.30;;;;;;7392264;19;20530;-78
2022/06/26 12:31:40;;;;;;;1.40;0.98;;;27.70;98.40;;;;;;7392721;19;20131;-77
2022/06/26 12:34:06;;;;;;;1.10;1.00;;;27.60;98.60;;;;;;7394002;19;20600;-76
2022/06/26 12:36:33;;;;;;;0.80;0.75;;;27.60;98.20;;;;;;7392868;19;20141;-77
2022/06/26 12:39:00;;;;;;;1.05;0.70;;;27.60;98.00;;;;;;7391868;19;20150;-78
2022/06/26 12:41:26;;;;;;;0.68;0.50;;;27.70;97.90;;;;;;7395395;19;20504;-78
2022/06/26 12:43:55;;;;;;;0.98;0.80;;;27.70;98.10;;;;;;7389831;19;20134;-78
2022/06/26 12:46:21;;;;;;;1.13;0.70;;;27.90;97.40;;;;;;7393683;19;20251;-78
2022/06/26 12:48:48;;;;;;;0.90;0.77;;;27.90;98.40;;;;;;7392246;19;20146;-76
2022/06/26 12:51:14;;;;;;;0.60;0.60;;;27.90;97.40;;;;;;7389130;19;20150;-76
2022/06/26 12:53:42;;;;;;;1.08;0.88;;;27.80;98.40;;;;;;7389174;19;20130;-76
2022/06/26 12:56:09;;;;;;;0.95;0.70;;;27.70;97.90;;;;;;7390890;19;20142;-79
2022/06/26 12:58:35;;;;;;;0.80;0.80;;;27.80;97.90;;;;;;7388112;19;20183;-77
2022/06/26 13:01:01;;;;;;;2.05;1.00;;;27.70;98.30;;;;;;7392305;19;20157;-79
2022/06/26 13:03:27;;;;;;;2.78;0.98;;;27.80;98.30;;;;;;7390698;19;20174;-78
2022/06/26 13:05:56;;;;;;;1.10;0.98;;;27.90;98.80;;;;;;7393801;19;20156;-77